地図

経路データ

SID SEASON NUMBER BASIN SUBBASIN NAME ISO_TIME NATURE LAT LON WMO_WIND WMO_PRES WMO_AGENCY TRACK_TYPE DIST2LAND LANDFALL IFLAG USA_AGENCY USA_ATCF_ID USA_LAT USA_LON USA_RECORD USA_STATUS USA_WIND USA_PRES USA_SSHS USA_R34_NE USA_R34_SE USA_R34_SW USA_R34_NW USA_R50_NE USA_R50_SE USA_R50_SW USA_R50_NW USA_R64_NE USA_R64_SE USA_R64_SW USA_R64_NW USA_POCI USA_ROCI USA_RMW USA_EYE TOKYO_LAT TOKYO_LON TOKYO_GRADE TOKYO_WIND TOKYO_PRES TOKYO_R50_DIR TOKYO_R50_LONG TOKYO_R50_SHORT TOKYO_R30_DIR TOKYO_R30_LONG TOKYO_R30_SHORT TOKYO_LAND CMA_LAT CMA_LON CMA_CAT CMA_WIND CMA_PRES HKO_LAT HKO_LON HKO_CAT HKO_WIND HKO_PRES NEWDELHI_LAT NEWDELHI_LON NEWDELHI_GRADE NEWDELHI_WIND NEWDELHI_PRES NEWDELHI_CI NEWDELHI_DP NEWDELHI_POCI REUNION_LAT REUNION_LON REUNION_TYPE REUNION_WIND REUNION_PRES REUNION_TNUM REUNION_CI REUNION_RMW REUNION_R34_NE REUNION_R34_SE REUNION_R34_SW REUNION_R34_NW REUNION_R50_NE REUNION_R50_SE REUNION_R50_SW REUNION_R50_NW REUNION_R64_NE REUNION_R64_SE REUNION_R64_SW REUNION_R64_NW BOM_LAT BOM_LON BOM_TYPE BOM_WIND BOM_PRES BOM_TNUM BOM_CI BOM_RMW BOM_R34_NE BOM_R34_SE BOM_R34_SW BOM_R34_NW BOM_R50_NE BOM_R50_SE BOM_R50_SW BOM_R50_NW BOM_R64_NE BOM_R64_SE BOM_R64_SW BOM_R64_NW BOM_ROCI BOM_POCI BOM_EYE BOM_POS_METHOD BOM_PRES_METHOD NADI_LAT NADI_LON NADI_CAT NADI_WIND NADI_PRES WELLINGTON_LAT WELLINGTON_LON WELLINGTON_WIND WELLINGTON_PRES DS824_LAT DS824_LON DS824_STAGE DS824_WIND DS824_PRES TD9636_LAT TD9636_LON TD9636_STAGE TD9636_WIND TD9636_PRES TD9635_LAT TD9635_LON TD9635_WIND TD9635_PRES TD9635_ROCI NEUMANN_LAT NEUMANN_LON NEUMANN_CLASS NEUMANN_WIND NEUMANN_PRES MLC_LAT MLC_LON MLC_CLASS MLC_WIND MLC_PRES USA_GUST BOM_GUST BOM_GUST_PER REUNION_GUST REUNION_GUST_PER USA_SEAHGT USA_SEARAD_NE USA_SEARAD_SE USA_SEARAD_SW USA_SEARAD_NW STORM_SPEED STORM_DIR
1899118N13094 1899 12 NI BB NOT_NAMED 1899-04-28 00:00:00 TS 13.2000 93.6000 main 303 303 _________O____ -1 13.2000 93.6000 TC 34 0 0
1899118N13094 1899 12 NI BB NOT_NAMED 1899-04-28 03:00:00 TS 13.2000 93.6000 main 303 303 _________PO___ -1 13.2000 93.6000 TC 36 13.2000 93.6000 2 0 0
1899118N13094 1899 12 NI BB NOT_NAMED 1899-04-28 06:00:00 TS 13.2050 93.6006 main 303 303 _________OP___ -1 13.2000 93.6000 TC 39 13.2125 93.6016 2 0 0
1899118N13094 1899 12 NI BB NOT_NAMED 1899-04-28 09:00:00 TS 13.2086 93.6011 main 303 303 _________PP___ -1 13.2000 93.6000 TC 42 13.2200 93.6025 2 0 0
1899118N13094 1899 12 NI BB NOT_NAMED 1899-04-28 12:00:00 TS 13.2088 93.6011 main 303 303 _________OP___ -1 13.2000 93.6000 TC 45 13.2175 93.6022 2 0 0
1899118N13094 1899 12 NI BB NOT_NAMED 1899-04-28 15:00:00 TS 13.2000 93.6000 main 303 303 _________PO___ -1 13.2000 93.6000 TC 45 13.2000 93.6000 3 0 0
1899118N13094 1899 12 NI BB NOT_NAMED 1899-04-28 18:00:00 TS 13.1838 93.5980 main 303 303 _________OP___ -1 13.2000 93.6000 TC 45 13.1675 93.5960 3 0 0
1899118N13094 1899 12 NI BB NOT_NAMED 1899-04-28 21:00:00 TS 13.1587 93.5963 main 303 303 _________PP___ -1 13.1775 93.6000 TC 45 13.1400 93.5925 3 0 0
1899118N13094 1899 12 NI BB NOT_NAMED 1899-04-29 00:00:00 TS 13.1713 93.5964 main 303 303 _________OP___ -1 13.2000 93.6000 TC 45 13.1425 93.5928 3 1 0
1899118N13094 1899 12 NI BB NOT_NAMED 1899-04-29 03:00:00 TS 13.2562 93.5963 main 292 282 _________PO___ -1 13.3125 93.5925 TC 45 13.2000 93.6000 3 2 6
1899118N13094 1899 12 NI BB NOT_NAMED 1899-04-29 06:00:00 TS 13.4172 93.6049 main 282 260 _________OP___ -1 13.5000 93.6000 TC 45 13.3344 93.6097 3 4 5
1899118N13094 1899 12 NI BB NOT_NAMED 1899-04-29 09:00:00 TS 13.6300 93.6350 main 260 225 _________PP___ -1 13.7350 93.6425 TC 45 13.5250 93.6276 3 5 9
1899118N13094 1899 12 NI BB NOT_NAMED 1899-04-29 12:00:00 TS 13.8766 93.6783 main 225 204 _________OP___ -1 14.0000 93.7000 TC 45 13.7531 93.6566 3 5 10
1899118N13094 1899 12 NI BB NOT_NAMED 1899-04-29 15:00:00 TS 14.1250 93.7213 main 204 169 _________PO___ -1 14.2500 93.7425 TC 45 14.0000 93.7000 3 5 12
1899118N13094 1899 12 NI BB NOT_NAMED 1899-04-29 18:00:00 TS 14.3780 93.7863 main 169 144 _________OP___ -1 14.5000 93.8000 TC 45 14.2560 93.7727 3 5 17
1899118N13094 1899 12 NI BB NOT_NAMED 1899-04-29 21:00:00 TS 14.6438 93.8824 main 144 109 _________PP___ -1 14.7650 93.9074 TC 45 14.5225 93.8573 3 5 19
1899118N13094 1899 12 NI BB NOT_NAMED 1899-04-30 00:00:00 TS 14.8889 93.9691 main 109 89 _________OP___ -1 15.0000 94.0000 TC 45 14.7778 93.9383 3 5 15
1899118N13094 1899 12 NI BB NOT_NAMED 1899-04-30 03:00:00 TS 15.0862 94.0075 main 89 79 _________PO___ -1 15.1725 94.0151 TC 45 15.0000 94.0000 3 4 5
1899118N13094 1899 12 NI BB NOT_NAMED 1899-04-30 06:00:00 TS 15.2345 94.0088 main 79 70 _________OP___ -1 15.3000 94.0000 TC 45 15.1690 94.0176 3 3 0
1899118N13094 1899 12 NI BB NOT_NAMED 1899-04-30 09:00:00 TS 15.3550 94.0076 main 61 61 _________PP___ -1 15.4075 94.0000 TC 45 15.3025 94.0152 3 2 0
1899118N13094 1899 12 NI BB NOT_NAMED 1899-04-30 12:00:00 TS 15.4548 94.0025 main 54 54 _________OP___ -1 15.5000 94.0000 TC 45 15.4097 94.0051 3 2 0
1899118N13094 1899 12 NI BB NOT_NAMED 1899-04-30 15:00:00 TS 15.5537 93.9963 main 48 48 _________PO___ -1 15.6075 93.9925 TC 45 15.5000 94.0000 3 2 8
1899118N13094 1899 12 NI BB NOT_NAMED 1899-04-30 18:00:00 TS 15.6427 94.0049 main 48 39 _________OP___ -1 15.7000 94.0000 TC 45 15.5853 94.0097 3 2 12
1899118N13094 1899 12 NI BB NOT_NAMED 1899-04-30 21:00:00 TS 15.7037 94.0350 main 39 24 _________PP___ -1 15.7500 94.0425 TC 45 15.6575 94.0275 3 1 29
1899118N13094 1899 12 NI BB NOT_NAMED 1899-05-01 00:00:00 TS 15.7630 94.0783 main 24 24 _________OP___ -1 15.8000 94.1000 TC 45 15.7259 94.0566 3 2 29
1899118N13094 1899 12 NI BB NOT_NAMED 1899-05-01 03:00:00 TS 15.8462 94.1213 main 24 11 _________PO___ -1 15.8925 94.1425 TC 45 15.8000 94.1000 3 2 29
1899118N13094 1899 12 NI BB NOT_NAMED 1899-05-01 06:00:00 TS 15.9464 94.1823 main 11 0 _________OP___ -1 16.0000 94.2000 TC 45 15.8928 94.1647 3 2 36
1899118N13094 1899 12 NI BB NOT_NAMED 1899-05-01 09:00:00 TS 16.0463 94.2712 main 10 0 _________PP___ -1 16.1000 94.3000 TC 45 15.9925 94.2425 3 3 41
1899118N13094 1899 12 NI BB NOT_NAMED 1899-05-01 12:00:00 TS 16.1480 94.3620 main 0 0 _________OP___ -1 16.2000 94.4000 TC 45 16.0960 94.3240 3 3 37
1899118N13094 1899 12 NI BB NOT_NAMED 1899-05-01 15:00:00 TS 16.2500 94.4288 main 0 0 _________PO___ -1 16.3000 94.4575 TC 41 16.2000 94.4000 3 2 30
1899118N13094 1899 12 NI BB NOT_NAMED 1899-05-01 18:00:00 TS 16.3441 94.4789 main 0 0 _________OP___ -1 16.4000 94.5000 TC 37 16.3022 94.4631 3 2 26
1899118N13094 1899 12 NI BB NOT_NAMED 1899-05-01 21:00:00 TS 16.4415 94.5280 main 0 0 _________PP___ -1 16.5000 94.5475 TC 33 16.4025 94.5150 3 2 25
1899118N13094 1899 12 NI BB NOT_NAMED 1899-05-02 00:00:00 TS 16.5344 94.5729 main 0 0 _________OP___ -1 16.6000 94.6000 TC 30 16.5016 94.5594 3 2 23
1899118N13094 1899 12 NI BB NOT_NAMED 1899-05-02 03:00:00 NR 16.6000 94.6000 main 0 __________O___ -1 TC 16.6000 94.6000 1 1 17

IBTrACS Databaseについて

本データベースは、米国NOAAが公開する1842年以降の世界の熱帯低気圧のベストトラックデータアーカイブInternational Best Track Archive for Climate Stewardship (IBTrACS)を、ウェブで閲覧しやすい形式に変換したものです。

最終更新日:2021-12-03